メインページ
METAR-TAF:

METAR-TAF

空港 :

フォール=ド=フランス, マルティニーク

マルティニーク・エメ・セゼール国際空港

緯度: 14-36N, 経度: 061-00W, 海抜: 5m

現時点の気象観測

当レポートは30分前の16:00(UTC)に作成
東/南東の風 13kt
気温 30°C
湿度 62%
気圧 1013 hPa
視程10km以上
高度3000ftの雲は散在している
高度3600ftの千切れ雲あり

METAR: TFFF 221600Z AUTO 11013KT 9999 SCT030 BKN036 30/22 Q1013 TEMPO 4000 SHRA SCT015TCU

時間: 12:30 (16:30 UTC)

予報

当レポートは3時間48分前の12:42(UTC)に作成
予報は22日の 12時(UTC)から 23日の 12時(UTC)まで有効
東/南東の風 10kt
視程10km以上
高度3000ftの雲は散在している
22日の 22時(UTC)から 22日の 24時(UTC)まで徐々に
変向風 3kt
22日の 12時(UTC)から 23日の 12時(UTC)まで一時的に
視程: 4000m
高度1500ftの雲は散在している, 塔状積雲.
にわか雨

TAF: TFFF 221242Z 2212/2312 12010KT 9999 SCT030 BECMG 2222/2224 VRB03KT TEMPO 2212/2312 4000 SHRA SCT015TCU

4,000以上の空港の気象観測と天気予報(METAR報とTAF報)

利用可能な観測所は地図上に黄色い丸と赤い丸で示す。

丸の上にカーソルを重ねると観測所名を参照できる。

次にクリックすると気象観測と天気予報を参照できる。

マップの切り替え:黒色「×」印の緑ボタンをクリックして拡大、「-」印の緑ボタンをクリックして縮小、緑色の三角印をクリックして隣りの地図に切り替え


METAR-TAF: